< < Back
Terminal Aerodrome Forecast


Current Version              Previous Versions:   1  2  3  4  5  6  7  8  9  

Terminal Aerodrome Forecast

841
FTUS42 KFFC 291727
TAFATL
TAF
KATL 291727Z 2918/3024 03012KT P6SM BKN035 BKN060
     FM292300 10007KT P6SM SCT070 SCT150
     FM300700 06004KT P6SM FEW250
     FM301500 08007KT P6SM FEW030=



Latest METAR

809
SAUS70 KWBC 300100 RRM
MTRATL
METAR KATL 300052Z 08011KT 10SM FEW200 28/18 A3008 RMK AO2 SLP176
T02830183


USA.gov is the U.S. government's official web portal to all federal, state and local government web resources and services.